Time,TemperatureF,DewpointF,PressureIn,WindDirection,WindDirectionDegrees,WindSpeedMPH,WindSpeedGustMPH,Humidity,HourlyPrecipIn,Conditions,Clouds,dailyrainin,SoftwareType,DateUTC
2013-01-01 00:05:00,39.8,36.5,24.87,WSW,241,0.0,0.0,88,0.00,,---,0.00,VWS V13.01,2013-01-01 08:05:00,
2013-01-01 00:10:00,39.6,36.6,24.84,WSW,241,0.0,0.0,89,0.00,,---,0.00,VWS V13.01,2013-01-01 08:10:00,
2013-01-01 00:15:00,39.5,36.2,24.85,WSW,242,0.0,0.0,88,0.00,,---,0.00,VWS V13.01,2013-01-01 08:15:00,
2013-01-01 00:20:00,39.3,36.0,24.85,WSW,242,0.0,0.0,88,0.00,,---,0.00,VWS V13.01,2013-01-01 08:20:00,
2013-01-01 00:25:00,39.3,36.3,24.85,WSW,241,0.0,0.0,89,0.00,,---,0.00,VWS V13.01,2013-01-01 08:25:00,
2013-01-01 00:30:00,39.2,36.2,24.89,WSW,241,0.0,1.0,89,0.00,,---,0.00,VWS V13.01,2013-01-01 08:30:00,
2013-01-01 00:35:00,39.1,36.1,24.84,WSW,241,0.0,1.0,89,0.00,,---,0.00,VWS V13.01,2013-01-01 08:35:00,
2013-01-01 00:40:00,39.0,36.0,24.93,WSW,242,0.0,1.0,89,0.00,,---,0.00,VWS V13.01,2013-01-01 08:40:00,
2013-01-01 00:45:00,39.0,36.0,24.93,WSW,242,0.0,1.0,89,0.00,,---,0.00,VWS V13.01,2013-01-01 08:45:00,
2013-01-01 00:50:00,39.1,36.4,24.78,WSW,241,0.0,1.0,90,0.00,,---,0.00,VWS V13.01,2013-01-01 08:50:00,
2013-01-01 00:55:00,39.2,36.5,24.89,WSW,241,0.0,1.0,90,0.00,,---,0.00,VWS V13.01,2013-01-01 08:55:00,
2013-01-01 01:00:00,39.2,36.5,24.89,WSW,242,0.0,1.0,90,0.00,,---,0.00,VWS V13.01,2013-01-01 09:00:00,
2013-01-01 01:05:00,39.2,36.5,24.89,WSW,242,0.0,1.0,90,0.00,,---,0.00,VWS V13.01,2013-01-01 09:05:00,
2013-01-01 01:10:00,39.1,36.4,24.87,WSW,242,0.0,1.0,90,0.00,,---,0.00,VWS V13.01,2013-01-01 09:10:00,
2013-01-01 01:15:00,39.3,36.6,24.87,WSW,241,0.0,1.0,90,0.00,,---,0.00,VWS V13.01,2013-01-01 09:15:00,
2013-01-01 01:20:00,39.5,36.8,24.87,WSW,242,0.0,1.0,90,0.00,,---,0.00,VWS V13.01,2013-01-01 09:20:00,
2013-01-01 01:25:00,39.6,36.9,24.87,WSW,242,0.0,1.0,90,0.00,,---,0.00,VWS V13.01,2013-01-01 09:25:00,
2013-01-01 01:30:00,39.5,36.8,24.87,WSW,241,0.0,1.0,90,0.00,,---,0.00,VWS V13.01,2013-01-01 09:30:00,
2013-01-01 01:35:00,39.3,36.6,24.86,WSW,241,0.0,1.0,90,0.00,,---,0.00,VWS V13.01,2013-01-01 09:35:00,
2013-01-01 01:40:00,39.3,36.6,24.99,WSW,241,0.0,1.0,90,0.00,,---,0.00,VWS V13.01,2013-01-01 09:40:00,
2013-01-01 01:45:00,39.2,36.5,24.85,WSW,242,0.0,1.0,90,0.00,,---,0.00,VWS V13.01,2013-01-01 09:45:00,
2013-01-01 01:50:00,39.2,36.5,24.88,WSW,242,0.0,1.0,90,0.00,,---,0.00,VWS V13.01,2013-01-01 09:50:00,
2013-01-01 01:55:00,39.1,36.4,24.81,WSW,241,0.0,1.0,90,0.00,,---,0.00,VWS V13.01,2013-01-01 09:55:00,
2013-01-01 02:00:00,38.9,36.2,24.86,WSW,241,0.0,1.0,90,0.00,,---,0.00,VWS V13.01,2013-01-01 10:00:00,
2013-01-01 02:05:00,38.8,36.1,24.82,WSW,242,0.0,0.0,90,0.00,,---,0.00,VWS V13.01,2013-01-01 10:05:00,
2013-01-01 02:10:00,38.7,36.0,24.86,WSW,242,0.0,0.0,90,0.00,,---,0.00,VWS V13.01,2013-01-01 10:10:00,
2013-01-01 02:15:00,38.5,35.8,24.86,WSW,242,0.0,0.0,90,0.00,,---,0.00,VWS V13.01,2013-01-01 10:15:00,
2013-01-01 02:20:00,38.5,35.8,24.86,WSW,241,0.0,0.0,90,0.00,,---,0.00,VWS V13.01,2013-01-01 10:20:00,
2013-01-01 02:25:00,38.4,35.7,24.86,WSW,242,0.0,0.0,90,0.00,,---,0.00,VWS V13.01,2013-01-01 10:25:00,
2013-01-01 02:30:00,38.2,35.5,24.86,WSW,242,0.0,0.0,90,0.00,,---,0.00,VWS V13.01,2013-01-01 10:30:00,
2013-01-01 02:35:00,38.2,35.5,24.86,WSW,242,0.0,0.0,90,0.00,,---,0.00,VWS V13.01,2013-01-01 10:35:00,
2013-01-01 02:40:00,38.3,35.6,24.83,WSW,242,0.0,0.0,90,0.00,,---,0.00,VWS V13.01,2013-01-01 10:40:00,
2013-01-01 02:45:00,38.4,35.7,24.83,WSW,242,0.0,1.0,90,0.00,,---,0.00,VWS V13.01,2013-01-01 10:45:00,
2013-01-01 02:50:00,38.8,36.1,24.84,WSW,242,0.0,3.0,90,0.00,,---,0.00,VWS V13.01,2013-01-01 10:50:00,
2013-01-01 02:55:00,39.3,36.9,24.84,East,92,1.0,6.0,91,0.00,,---,0.00,VWS V13.01,2013-01-01 10:55:00,
2013-01-01 03:00:00,39.5,37.1,24.89,ENE,74,0.0,6.0,91,0.00,,---,0.00,VWS V13.01,2013-01-01 11:00:00,
2013-01-01 03:05:00,39.6,37.2,24.83,ENE,78,2.0,3.0,91,0.00,,---,0.00,VWS V13.01,2013-01-01 11:05:00,
2013-01-01 03:10:00,39.6,37.2,24.98,ENE,75,0.0,3.0,91,0.00,,---,0.00,VWS V13.01,2013-01-01 11:10:00,
2013-01-01 03:15:00,39.7,37.0,24.89,ENE,75,0.0,3.0,90,0.00,,---,0.00,VWS V13.01,2013-01-01 11:15:00,
2013-01-01 03:20:00,39.7,37.0,24.89,ENE,76,0.0,3.0,90,0.00,,---,0.00,VWS V13.01,2013-01-01 11:20:00,
2013-01-01 03:25:00,39.7,37.0,24.91,ENE,75,0.0,3.0,90,0.00,,---,0.00,VWS V13.01,2013-01-01 11:25:00,
2013-01-01 03:30:00,39.7,37.0,24.90,ENE,76,0.0,3.0,90,0.00,,---,0.00,VWS V13.01,2013-01-01 11:30:00,
2013-01-01 03:35:00,39.7,37.0,24.90,ENE,76,0.0,3.0,90,0.00,,---,0.00,VWS V13.01,2013-01-01 11:35:00,
2013-01-01 03:40:00,39.7,37.0,24.88,ENE,75,0.0,3.0,90,0.00,,---,0.00,VWS V13.01,2013-01-01 11:40:00,
2013-01-01 03:45:00,39.7,37.0,24.88,ENE,75,0.0,3.0,90,0.00,,---,0.00,VWS V13.01,2013-01-01 11:45:00,
2013-01-01 03:50:00,39.7,37.0,24.86,ENE,75,0.0,3.0,90,0.00,,---,0.00,VWS V13.01,2013-01-01 11:50:00,
2013-01-01 03:55:00,39.7,37.0,24.83,ENE,76,0.0,3.0,90,0.00,,---,0.00,VWS V13.01,2013-01-01 11:55:00,
2013-01-01 04:00:00,39.8,37.1,24.88,ENE,76,0.0,3.0,90,0.00,,---,0.00,VWS V13.01,2013-01-01 12:00:00,
2013-01-01 04:05:00,39.8,37.1,24.86,ENE,75,0.0,0.0,90,0.00,,---,0.00,VWS V13.01,2013-01-01 12:05:00,
2013-01-01 04:10:00,39.8,37.1,24.83,ENE,76,0.0,0.0,90,0.00,,---,0.00,VWS V13.01,2013-01-01 12:10:00,
2013-01-01 04:15:00,39.9,37.2,24.83,ENE,76,0.0,0.0,90,0.00,,---,0.00,VWS V13.01,2013-01-01 12:15:00,
2013-01-01 04:20:00,40.0,37.3,24.83,ENE,76,0.0,0.0,90,0.00,,---,0.00,VWS V13.01,2013-01-01 12:20:00,
2013-01-01 04:25:00,40.0,37.3,24.89,ENE,75,0.0,0.0,90,0.00,,---,0.00,VWS V13.01,2013-01-01 12:25:00,
2013-01-01 04:30:00,40.2,37.5,24.91,ENE,75,0.0,0.0,90,0.00,,---,0.00,VWS V13.01,2013-01-01 12:30:00,
2013-01-01 04:35:00,40.2,37.5,24.87,ENE,76,0.0,0.0,90,0.00,,---,0.00,VWS V13.01,2013-01-01 12:35:00,
2013-01-01 04:40:00,40.3,37.6,24.85,ENE,75,0.0,0.0,90,0.00,,---,0.00,VWS V13.01,2013-01-01 12:40:00,
2013-01-01 04:45:00,40.4,37.7,24.85,ENE,76,0.0,1.0,90,0.00,,---,0.00,VWS V13.01,2013-01-01 12:45:00,
2013-01-01 04:50:00,40.5,37.8,24.85,ENE,76,0.0,2.0,90,0.00,,---,0.00,VWS V13.01,2013-01-01 12:50:00,
2013-01-01 04:55:00,40.7,38.0,24.85,ENE,76,1.0,4.0,90,0.00,,---,0.00,VWS V13.01,2013-01-01 12:55:00,
2013-01-01 05:00:00,40.9,37.9,24.93,ENE,76,0.0,4.0,89,0.00,,---,0.00,VWS V13.01,2013-01-01 13:00:00,
2013-01-01 05:05:00,41.0,38.0,24.87,ENE,75,0.0,1.0,89,0.00,,---,0.00,VWS V13.01,2013-01-01 13:05:00,
2013-01-01 05:10:00,41.2,38.2,24.91,ENE,75,0.0,1.0,89,0.00,,---,0.00,VWS V13.01,2013-01-01 13:10:00,
2013-01-01 05:15:00,41.3,38.3,24.88,ENE,75,0.0,2.0,89,0.00,,---,0.00,VWS V13.01,2013-01-01 13:15:00,
2013-01-01 05:20:00,41.3,38.3,24.83,ENE,75,1.0,3.0,89,0.00,,---,0.00,VWS V13.01,2013-01-01 13:20:00,
2013-01-01 05:25:00,41.3,38.3,24.88,ENE,75,0.0,3.0,89,0.00,,---,0.00,VWS V13.01,2013-01-01 13:25:00,
2013-01-01 05:30:00,41.3,38.3,24.88,ENE,75,0.0,3.0,89,0.00,,---,0.00,VWS V13.01,2013-01-01 13:30:00,
2013-01-01 05:35:00,41.3,38.3,24.89,ENE,75,0.0,3.0,89,0.00,,---,0.00,VWS V13.01,2013-01-01 13:35:00,
2013-01-01 05:40:00,41.3,38.3,24.80,ENE,75,0.0,3.0,89,0.00,,---,0.00,VWS V13.01,2013-01-01 13:40:00,
2013-01-01 05:45:00,41.3,38.3,24.80,ENE,75,0.0,3.0,89,0.00,,---,0.00,VWS V13.01,2013-01-01 13:45:00,
2013-01-01 05:50:00,41.3,38.3,24.83,ENE,75,0.0,3.0,89,0.00,,---,0.00,VWS V13.01,2013-01-01 13:50:00,
2013-01-01 05:55:00,41.3,38.3,24.83,ENE,75,0.0,3.0,89,0.00,,---,0.00,VWS V13.01,2013-01-01 13:55:00,
2013-01-01 06:00:00,41.2,38.2,24.78,ENE,75,0.0,3.0,89,0.00,,---,0.00,VWS V13.01,2013-01-01 14:00:00,
2013-01-01 06:05:00,41.2,38.2,24.78,ENE,75,0.0,0.0,89,0.00,,---,0.00,VWS V13.01,2013-01-01 14:05:00,
2013-01-01 06:10:00,41.2,38.2,24.86,ENE,75,0.0,0.0,89,0.00,,---,0.00,VWS V13.01,2013-01-01 14:10:00,
2013-01-01 06:15:00,41.2,38.2,24.90,ENE,75,0.0,0.0,89,0.00,,---,0.00,VWS V13.01,2013-01-01 14:15:00,
2013-01-01 06:20:00,41.1,38.1,24.90,ENE,75,0.0,0.0,89,0.00,,---,0.00,VWS V13.01,2013-01-01 14:20:00,
2013-01-01 06:25:00,41.0,38.0,24.90,ENE,75,0.0,0.0,89,0.00,,---,0.00,VWS V13.01,2013-01-01 14:25:00,
2013-01-01 06:30:00,41.0,38.0,24.80,ENE,75,0.0,0.0,89,0.00,,---,0.00,VWS V13.01,2013-01-01 14:30:00,
2013-01-01 06:35:00,40.9,37.6,24.80,ENE,75,0.0,0.0,88,0.00,,---,0.00,VWS V13.01,2013-01-01 14:35:00,
2013-01-01 06:40:00,40.7,37.4,24.86,ENE,75,0.0,0.0,88,0.00,,---,0.00,VWS V13.01,2013-01-01 14:40:00,
2013-01-01 06:45:00,40.5,37.2,24.89,ENE,75,0.0,0.0,88,0.00,,---,0.00,VWS V13.01,2013-01-01 14:45:00,
2013-01-01 06:50:00,40.3,37.0,24.87,ENE,75,0.0,0.0,88,0.00,,---,0.00,VWS V13.01,2013-01-01 14:50:00,
2013-01-01 06:55:00,40.0,36.7,24.79,ENE,75,0.0,1.0,88,0.00,,---,0.00,VWS V13.01,2013-01-01 14:55:00,
2013-01-01 07:00:00,39.8,36.5,24.88,ENE,75,0.0,1.0,88,0.00,,---,0.00,VWS V13.01,2013-01-01 15:00:00,
2013-01-01 07:05:00,39.5,36.2,24.88,ENE,75,0.0,0.0,88,0.00,,---,0.00,VWS V13.01,2013-01-01 15:05:00,
2013-01-01 07:10:00,39.1,35.8,24.80,ENE,75,0.0,0.0,88,0.00,,---,0.00,VWS V13.01,2013-01-01 15:10:00,
2013-01-01 07:15:00,38.8,35.6,24.85,ENE,75,0.0,0.0,88,0.00,,---,0.00,VWS V13.01,2013-01-01 15:15:00,
2013-01-01 07:20:00,38.5,35.3,24.83,ENE,75,0.0,0.0,88,0.00,,---,0.00,VWS V13.01,2013-01-01 15:20:00,
2013-01-01 07:25:00,38.1,34.9,24.83,ENE,75,0.0,0.0,88,0.00,,---,0.00,VWS V13.01,2013-01-01 15:25:00,
2013-01-01 07:30:00,37.9,34.7,24.83,ENE,75,0.0,0.0,88,0.00,,---,0.00,VWS V13.01,2013-01-01 15:30:00,
2013-01-01 07:35:00,37.7,34.8,24.80,ENE,75,0.0,0.0,89,0.00,,---,0.00,VWS V13.01,2013-01-01 15:35:00,
2013-01-01 07:40:00,37.5,34.6,24.80,ENE,75,0.0,0.0,89,0.00,,---,0.00,VWS V13.01,2013-01-01 15:40:00,
2013-01-01 07:45:00,37.3,34.4,24.78,ENE,75,0.0,0.0,89,0.00,,---,0.00,VWS V13.01,2013-01-01 15:45:00,
2013-01-01 07:50:00,37.1,34.2,24.78,ENE,75,0.0,0.0,89,0.00,,---,0.00,VWS V13.01,2013-01-01 15:50:00,
2013-01-01 07:55:00,37.0,34.1,24.87,ENE,75,0.0,0.0,89,0.00,,---,0.00,VWS V13.01,2013-01-01 15:55:00,
2013-01-01 08:00:00,36.9,34.0,24.91,ENE,75,0.0,0.0,89,0.00,,---,0.00,VWS V13.01,2013-01-01 16:00:00,
2013-01-01 08:05:00,36.9,34.0,24.76,ENE,75,0.0,0.0,89,0.00,,---,0.00,VWS V13.01,2013-01-01 16:05:00,
2013-01-01 08:10:00,36.9,34.2,24.92,ENE,75,0.0,0.0,90,0.00,,---,0.00,VWS V13.01,2013-01-01 16:10:00,
2013-01-01 08:15:00,36.8,33.9,24.92,ENE,75,0.0,0.0,89,0.00,,---,0.00,VWS V13.01,2013-01-01 16:15:00,
2013-01-01 08:20:00,36.7,33.8,24.92,ENE,75,0.0,0.0,89,0.00,,---,0.00,VWS V13.01,2013-01-01 16:20:00,
2013-01-01 08:25:00,36.7,33.8,24.91,ENE,75,0.0,0.0,89,0.00,,---,0.00,VWS V13.01,2013-01-01 16:25:00,
2013-01-01 08:30:00,36.8,34.2,24.91,ENE,75,0.0,0.0,90,0.00,,---,0.00,VWS V13.01,2013-01-01 16:30:00,
2013-01-01 08:35:00,36.8,34.2,24.91,ENE,75,0.0,0.0,90,0.00,,---,0.00,VWS V13.01,2013-01-01 16:35:00,
2013-01-01 08:40:00,36.8,34.2,24.91,ENE,75,0.0,0.0,90,0.00,,---,0.00,VWS V13.01,2013-01-01 16:40:00,
2013-01-01 08:45:00,36.9,34.2,24.91,ENE,75,0.0,0.0,90,0.00,,---,0.00,VWS V13.01,2013-01-01 16:45:00,
2013-01-01 08:50:00,37.1,34.4,24.91,ENE,75,0.0,0.0,90,0.00,,---,0.00,VWS V13.01,2013-01-01 16:50:00,
2013-01-01 08:55:00,37.4,34.7,24.88,ENE,75,0.0,0.0,90,0.00,,---,0.00,VWS V13.01,2013-01-01 16:55:00,
2013-01-01 09:00:00,37.7,35.3,24.78,ENE,75,0.0,0.0,91,0.00,,---,0.00,VWS V13.01,2013-01-01 17:00:00,
2013-01-01 09:05:00,38.0,35.6,24.78,ENE,75,0.0,0.0,91,0.00,,---,0.00,VWS V13.01,2013-01-01 17:05:00,
2013-01-01 09:10:00,38.4,36.0,24.78,ENE,75,0.0,0.0,91,0.00,,---,0.00,VWS V13.01,2013-01-01 17:10:00,
2013-01-01 09:15:00,38.8,36.4,24.78,ENE,75,0.0,0.0,91,0.00,,---,0.00,VWS V13.01,2013-01-01 17:15:00,
2013-01-01 09:20:00,39.1,36.7,24.78,ENE,75,0.0,0.0,91,0.00,,---,0.00,VWS V13.01,2013-01-01 17:20:00,
2013-01-01 09:25:00,39.6,37.2,24.78,ENE,75,0.0,0.0,91,0.00,,---,0.00,VWS V13.01,2013-01-01 17:25:00,
2013-01-01 09:30:00,40.0,37.3,24.75,ENE,75,0.0,0.0,90,0.00,,---,0.00,VWS V13.01,2013-01-01 17:30:00,
2013-01-01 09:35:00,40.4,37.7,24.86,ENE,75,0.0,0.0,90,0.00,,---,0.00,VWS V13.01,2013-01-01 17:35:00,
2013-01-01 09:40:00,40.8,38.1,24.82,ENE,75,0.0,0.0,90,0.00,,---,0.00,VWS V13.01,2013-01-01 17:40:00,
2013-01-01 09:45:00,41.5,37.9,24.95,East,80,1.0,5.0,87,0.00,,---,0.00,VWS V13.01,2013-01-01 17:45:00,
2013-01-01 09:50:00,42.4,37.9,24.88,East,89,1.0,5.0,84,0.00,,---,0.00,VWS V13.01,2013-01-01 17:50:00,
2013-01-01 09:55:00,43.1,38.3,24.83,East,80,3.0,5.0,83,0.00,,---,0.00,VWS V13.01,2013-01-01 17:55:00,
2013-01-01 10:00:00,43.6,37.8,24.75,NE,55,4.0,6.0,80,0.00,,---,0.00,VWS V13.01,2013-01-01 18:00:00,
2013-01-01 10:05:00,43.8,38.0,24.75,East,101,2.0,7.0,80,0.00,,---,0.00,VWS V13.01,2013-01-01 18:05:00,
2013-01-01 10:10:00,44.0,37.6,24.85,ENE,72,2.0,7.0,78,0.00,,---,0.00,VWS V13.01,2013-01-01 18:10:00,
2013-01-01 10:15:00,44.2,37.5,24.85,ESE,108,1.0,7.0,77,0.00,,---,0.00,VWS V13.01,2013-01-01 18:15:00,
2013-01-01 10:20:00,44.5,37.4,24.79,ESE,107,1.0,7.0,76,0.00,,---,0.00,VWS V13.01,2013-01-01 18:20:00,
2013-01-01 10:25:00,44.6,36.8,24.79,ESE,108,0.0,7.0,74,0.00,,---,0.00,VWS V13.01,2013-01-01 18:25:00,
2013-01-01 10:30:00,44.9,37.1,24.79,ESE,109,0.0,7.0,74,0.00,,---,0.00,VWS V13.01,2013-01-01 18:30:00,
2013-01-01 10:35:00,45.2,37.4,25.01,East,94,1.0,7.0,74,0.00,,---,0.00,VWS V13.01,2013-01-01 18:35:00,
2013-01-01 10:40:00,45.4,37.6,25.01,ENE,58,4.0,7.0,74,0.00,,---,0.00,VWS V13.01,2013-01-01 18:40:00,
2013-01-01 10:45:00,45.5,37.4,24.78,East,96,1.0,7.0,73,0.00,,---,0.00,VWS V13.01,2013-01-01 18:45:00,
2013-01-01 10:50:00,45.6,37.8,24.86,East,97,0.0,7.0,74,0.00,,---,0.00,VWS V13.01,2013-01-01 18:50:00,
2013-01-01 10:55:00,46.0,37.5,24.86,SE,125,0.0,7.0,72,0.00,,---,0.00,VWS V13.01,2013-01-01 18:55:00,
2013-01-01 11:00:00,46.1,37.2,24.86,ESE,116,1.0,7.0,71,0.00,,---,0.00,VWS V13.01,2013-01-01 19:00:00,
2013-01-01 11:05:00,46.2,37.3,25.01,SE,128,3.0,10.0,71,0.00,,---,0.00,VWS V13.01,2013-01-01 19:05:00,
2013-01-01 11:10:00,46.3,38.1,25.01,ESE,103,4.0,10.0,73,0.00,,---,0.00,VWS V13.01,2013-01-01 19:10:00,
2013-01-01 11:15:00,46.2,38.0,24.81,ESE,115,3.0,10.0,73,0.00,,---,0.00,VWS V13.01,2013-01-01 19:15:00,
2013-01-01 11:20:00,46.1,37.6,24.81,East,90,3.0,11.0,72,0.00,,---,0.00,VWS V13.01,2013-01-01 19:20:00,
2013-01-01 11:25:00,46.3,38.1,24.87,East,95,3.0,11.0,73,0.00,,---,0.00,VWS V13.01,2013-01-01 19:25:00,
2013-01-01 11:30:00,46.5,38.3,24.84,ENE,68,4.0,11.0,73,0.00,,---,0.00,VWS V13.01,2013-01-01 19:30:00,
2013-01-01 11:35:00,46.5,38.0,24.87,SE,140,3.0,11.0,72,0.00,,---,0.00,VWS V13.01,2013-01-01 19:35:00,
2013-01-01 11:40:00,46.7,38.2,24.87,ENE,64,5.0,11.0,72,0.00,,---,0.00,VWS V13.01,2013-01-01 19:40:00,
2013-01-01 11:45:00,46.8,38.3,24.85,ESE,107,3.0,11.0,72,0.00,,---,0.00,VWS V13.01,2013-01-01 19:45:00,
2013-01-01 11:50:00,47.2,38.3,24.86,SE,130,0.0,11.0,71,0.00,,---,0.00,VWS V13.01,2013-01-01 19:50:00,
2013-01-01 11:55:00,47.7,38.8,24.86,East,82,1.0,11.0,71,0.00,,---,0.00,VWS V13.01,2013-01-01 19:55:00,
2013-01-01 12:00:00,47.7,38.4,24.86,ESE,118,0.0,11.0,70,0.00,,---,0.00,VWS V13.01,2013-01-01 20:00:00,
2013-01-01 12:05:00,47.9,38.6,24.80,ESE,102,2.0,5.0,70,0.00,,---,0.00,VWS V13.01,2013-01-01 20:05:00,
2013-01-01 12:10:00,48.1,38.8,24.86,East,97,1.0,6.0,70,0.00,,---,0.00,VWS V13.01,2013-01-01 20:10:00,
2013-01-01 12:15:00,48.5,39.2,24.86,ESE,110,0.0,7.0,70,0.00,,---,0.00,VWS V13.01,2013-01-01 20:15:00,
2013-01-01 12:20:00,48.8,39.1,24.86,SE,125,1.0,7.0,69,0.00,,---,0.00,VWS V13.01,2013-01-01 20:20:00,
2013-01-01 12:25:00,49.2,39.5,24.88,SE,130,1.0,7.0,69,0.00,,---,0.00,VWS V13.01,2013-01-01 20:25:00,
2013-01-01 12:30:00,49.3,39.2,24.88,SE,131,0.0,10.0,68,0.00,,---,0.00,VWS V13.01,2013-01-01 20:30:00,
2013-01-01 12:35:00,49.3,38.8,24.97,East,90,0.0,10.0,67,0.00,,---,0.00,VWS V13.01,2013-01-01 20:35:00,
2013-01-01 12:40:00,49.4,39.3,25.01,ESE,110,4.0,10.0,68,0.00,,---,0.00,VWS V13.01,2013-01-01 20:40:00,
2013-01-01 12:45:00,49.7,39.2,24.89,SE,127,0.0,10.0,67,0.00,,---,0.00,VWS V13.01,2013-01-01 20:45:00,
2013-01-01 12:50:00,50.0,39.5,24.87,SE,134,0.0,10.0,67,0.00,,---,0.00,VWS V13.01,2013-01-01 20:50:00,
2013-01-01 12:55:00,50.1,39.2,24.88,SE,138,1.0,10.0,66,0.00,,---,0.00,VWS V13.01,2013-01-01 20:55:00,
2013-01-01 13:00:00,50.4,39.5,24.91,SE,144,1.0,10.0,66,0.00,,---,0.00,VWS V13.01,2013-01-01 21:00:00,
2013-01-01 13:05:00,50.8,39.9,24.77,SE,138,0.0,7.0,66,0.00,,---,0.00,VWS V13.01,2013-01-01 21:05:00,
2013-01-01 13:10:00,51.0,39.7,24.80,SE,134,0.0,7.0,65,0.00,,---,0.00,VWS V13.01,2013-01-01 21:10:00,
2013-01-01 13:15:00,51.2,39.8,24.83,ESE,109,5.0,7.0,65,0.00,,---,0.00,VWS V13.01,2013-01-01 21:15:00,
2013-01-01 13:20:00,51.1,39.8,24.81,SE,138,4.0,10.0,65,0.00,,---,0.00,VWS V13.01,2013-01-01 21:20:00,
2013-01-01 13:25:00,51.1,39.8,24.85,SE,126,2.0,10.0,65,0.00,,---,0.00,VWS V13.01,2013-01-01 21:25:00,
2013-01-01 13:29:00,51.3,39.5,24.89,SE,132,2.0,10.0,64,0.00,,---,0.00,VWS V13.01,2013-01-01 21:29:00,
2013-01-01 13:34:00,51.2,39.5,24.90,East,98,1.0,10.0,64,0.00,,---,0.00,VWS V13.01,2013-01-01 21:34:00,
2013-01-01 13:39:00,51.1,39.4,24.90,East,96,1.0,10.0,64,0.00,,---,0.00,VWS V13.01,2013-01-01 21:39:00,
2013-01-01 13:44:00,51.4,39.7,24.92,East,91,4.0,10.0,64,0.00,,---,0.00,VWS V13.01,2013-01-01 21:44:00,
2013-01-01 13:49:00,51.5,39.3,24.77,SE,142,3.0,11.0,63,0.00,,---,0.00,VWS V13.01,2013-01-01 21:49:00,
2013-01-01 13:54:00,52.1,40.3,24.74,ESE,123,1.0,11.0,64,0.00,,---,0.00,VWS V13.01,2013-01-01 21:54:00,
2013-01-01 13:59:00,52.7,39.6,24.74,SE,125,0.0,11.0,61,0.00,,---,0.00,VWS V13.01,2013-01-01 21:59:00,
2013-01-01 14:04:00,53.3,38.9,24.74,ESE,123,2.0,6.0,58,0.00,,---,0.00,VWS V13.01,2013-01-01 22:04:00,
2013-01-01 14:09:00,53.5,39.5,24.83,ESE,116,2.0,6.0,59,0.00,,---,0.00,VWS V13.01,2013-01-01 22:09:00,
2013-01-01 14:14:00,53.8,38.5,24.80,SE,133,2.0,6.0,56,0.00,,---,0.00,VWS V13.01,2013-01-01 22:14:00,
2013-01-01 14:19:00,53.3,38.5,24.87,East,91,0.0,6.0,57,0.00,,---,0.00,VWS V13.01,2013-01-01 22:19:00,
2013-01-01 14:24:00,53.3,38.0,24.83,SE,133,6.0,9.0,56,0.00,,---,0.00,VWS V13.01,2013-01-01 22:24:00,
2013-01-01 14:29:00,53.2,37.9,24.81,ESE,123,0.0,9.0,56,0.00,,---,0.00,VWS V13.01,2013-01-01 22:29:00,
2013-01-01 14:34:00,53.3,37.6,24.89,SE,146,0.0,9.0,55,0.00,,---,0.00,VWS V13.01,2013-01-01 22:34:00,
2013-01-01 14:39:00,53.5,37.8,24.94,ESE,107,0.0,9.0,55,0.00,,---,0.00,VWS V13.01,2013-01-01 22:39:00,
2013-01-01 14:44:00,53.8,38.0,24.89,SE,136,3.0,9.0,55,0.00,,---,0.00,VWS V13.01,2013-01-01 22:44:00,
2013-01-01 14:49:00,54.3,38.0,24.95,SE,142,0.0,9.0,54,0.00,,---,0.00,VWS V13.01,2013-01-01 22:49:00,
2013-01-01 14:54:00,54.8,37.0,24.89,ESE,113,1.0,9.0,51,0.00,,---,0.00,VWS V13.01,2013-01-01 22:54:00,
2013-01-01 14:59:00,54.7,37.4,24.96,ESE,110,3.0,9.0,52,0.00,,---,0.00,VWS V13.01,2013-01-01 22:59:00,
2013-01-01 15:04:00,54.3,36.6,25.01,SE,133,4.0,10.0,51,0.00,,---,0.00,VWS V13.01,2013-01-01 23:04:00,
2013-01-01 15:09:00,54.4,35.7,24.95,SSE,151,3.0,10.0,49,0.00,,---,0.00,VWS V13.01,2013-01-01 23:09:00,
2013-01-01 15:14:00,54.7,36.4,24.95,SE,137,0.0,10.0,50,0.00,,---,0.00,VWS V13.01,2013-01-01 23:14:00,
2013-01-01 15:19:00,54.3,35.6,24.91,SE,133,1.0,18.0,49,0.00,,---,0.00,VWS V13.01,2013-01-01 23:19:00,
2013-01-01 15:24:00,54.4,35.1,24.86,SSE,152,1.0,18.0,48,0.00,,---,0.00,VWS V13.01,2013-01-01 23:24:00,
2013-01-01 15:29:00,54.5,34.7,24.84,SE,134,0.0,18.0,47,0.00,,---,0.00,VWS V13.01,2013-01-01 23:29:00,
2013-01-01 15:34:00,54.6,34.2,24.85,SE,139,3.0,18.0,46,0.00,,---,0.00,VWS V13.01,2013-01-01 23:34:00,
2013-01-01 15:39:00,54.8,33.9,24.92,SE,144,1.0,18.0,45,0.00,,---,0.00,VWS V13.01,2013-01-01 23:39:00,
2013-01-01 15:44:00,54.9,34.5,24.86,ESE,109,1.0,18.0,46,0.00,,---,0.00,VWS V13.01,2013-01-01 23:44:00,
2013-01-01 15:49:00,55.1,34.2,24.96,ESE,119,0.0,18.0,45,0.00,,---,0.00,VWS V13.01,2013-01-01 23:49:00,
2013-01-01 15:54:00,55.1,33.0,24.88,SE,144,0.0,18.0,43,0.00,,---,0.00,VWS V13.01,2013-01-01 23:54:00,
2013-01-01 15:59:00,55.1,33.6,24.84,SE,145,0.0,18.0,44,0.00,,---,0.00,VWS V13.01,2013-01-01 23:59:00,
2013-01-01 16:04:00,55.2,33.7,24.85,SE,145,1.0,1.0,44,0.00,,---,0.00,VWS V13.01,2013-01-02 00:04:00,
2013-01-01 16:09:00,54.9,33.4,24.86,SSE,148,0.0,5.0,44,0.00,,---,0.00,VWS V13.01,2013-01-02 00:09:00,
2013-01-01 16:14:00,54.7,33.2,24.87,SSE,167,0.0,6.0,44,0.00,,---,0.00,VWS V13.01,2013-01-02 00:14:00,
2013-01-01 16:19:00,54.6,33.7,24.80,SSE,165,2.0,6.0,45,0.00,,---,0.00,VWS V13.01,2013-01-02 00:19:00,
2013-01-01 16:24:00,54.2,33.3,24.84,SSE,155,0.0,6.0,45,0.00,,---,0.00,VWS V13.01,2013-01-02 00:24:00,
2013-01-01 16:29:00,53.7,32.9,24.80,South,169,0.0,6.0,45,0.00,,---,0.00,VWS V13.01,2013-01-02 00:29:00,
2013-01-01 16:34:00,53.2,33.0,24.79,SSE,160,0.0,6.0,46,0.00,,---,0.00,VWS V13.01,2013-01-02 00:34:00,
2013-01-01 16:39:00,52.7,33.0,24.82,SSE,157,0.0,6.0,47,0.00,,---,0.00,VWS V13.01,2013-01-02 00:39:00,
2013-01-01 16:44:00,52.2,32.6,24.82,SSE,166,0.0,6.0,47,0.00,,---,0.00,VWS V13.01,2013-01-02 00:44:00,
2013-01-01 16:49:00,51.8,32.2,24.79,SSE,149,0.0,7.0,47,0.00,,---,0.00,VWS V13.01,2013-01-02 00:49:00,
2013-01-01 16:54:00,51.4,31.9,24.81,SE,143,5.0,7.0,47,0.00,,---,0.00,VWS V13.01,2013-01-02 00:54:00,
2013-01-01 16:59:00,51.1,31.6,24.85,SSE,160,0.0,7.0,47,0.00,,---,0.00,VWS V13.01,2013-01-02 00:59:00,
2013-01-01 17:04:00,50.9,31.4,24.87,SSE,159,0.0,1.0,47,0.00,,---,0.00,VWS V13.01,2013-01-02 01:04:00,
2013-01-01 17:09:00,50.6,31.1,24.87,SSE,157,0.0,3.0,47,0.00,,---,0.00,VWS V13.01,2013-01-02 01:09:00,
2013-01-01 17:14:00,50.4,31.0,24.87,SE,146,1.0,7.0,47,0.00,,---,0.00,VWS V13.01,2013-01-02 01:14:00,
2013-01-01 17:19:00,50.2,30.2,24.87,SSE,147,0.0,7.0,46,0.00,,---,0.00,VWS V13.01,2013-01-02 01:19:00,
2013-01-01 17:24:00,50.1,30.1,24.92,SE,137,7.0,9.0,46,0.00,,---,0.00,VWS V13.01,2013-01-02 01:24:00,
2013-01-01 17:29:00,50.2,30.2,24.87,SE,135,5.0,9.0,46,0.00,,---,0.00,VWS V13.01,2013-01-02 01:29:00,
2013-01-01 17:34:00,50.3,29.8,24.92,SE,142,0.0,9.0,45,0.00,,---,0.00,VWS V13.01,2013-01-02 01:34:00,
2013-01-01 17:39:00,50.3,29.2,24.96,SSE,149,0.0,9.0,44,0.00,,---,0.00,VWS V13.01,2013-01-02 01:39:00,
2013-01-01 17:44:00,50.4,28.8,24.90,SE,145,0.0,9.0,43,0.00,,---,0.00,VWS V13.01,2013-01-02 01:44:00,
2013-01-01 17:49:00,50.5,28.9,24.97,SE,135,0.0,9.0,43,0.00,,---,0.00,VWS V13.01,2013-01-02 01:49:00,
2013-01-01 17:54:00,50.5,28.9,24.99,SE,140,0.0,9.0,43,0.00,,---,0.00,VWS V13.01,2013-01-02 01:54:00,
2013-01-01 17:59:00,50.3,30.9,24.98,SE,140,0.0,9.0,47,0.00,,---,0.00,VWS V13.01,2013-01-02 01:59:00,
2013-01-01 18:04:00,49.8,31.9,24.93,SE,144,0.0,3.0,50,0.00,,---,0.00,VWS V13.01,2013-01-02 02:04:00,
2013-01-01 18:09:00,48.8,32.9,24.95,SSE,159,0.0,3.0,54,0.00,,---,0.00,VWS V13.01,2013-01-02 02:09:00,
2013-01-01 18:14:00,48.0,33.1,24.94,SSE,159,1.0,3.0,56,0.00,,---,0.00,VWS V13.01,2013-01-02 02:14:00,
2013-01-01 18:19:00,47.4,33.4,24.92,South,171,0.0,3.0,58,0.00,,---,0.00,VWS V13.01,2013-01-02 02:19:00,
2013-01-01 18:24:00,46.8,33.7,24.80,South,188,3.0,4.0,60,0.00,,---,0.00,VWS V13.01,2013-01-02 02:24:00,
2013-01-01 18:29:00,46.4,33.3,24.80,South,190,0.0,4.0,60,0.00,,---,0.00,VWS V13.01,2013-01-02 02:29:00,
2013-01-01 18:34:00,46.1,33.4,24.78,South,190,0.0,4.0,61,0.00,,---,0.00,VWS V13.01,2013-01-02 02:34:00,
2013-01-01 18:39:00,45.8,33.9,24.87,South,190,0.0,4.0,63,0.00,,---,0.00,VWS V13.01,2013-01-02 02:39:00,
2013-01-01 18:44:00,45.3,33.5,24.87,SSW,207,0.0,4.0,63,0.00,,---,0.00,VWS V13.01,2013-01-02 02:44:00,
2013-01-01 18:49:00,44.9,33.5,24.92,SSW,207,0.0,4.0,64,0.00,,---,0.00,VWS V13.01,2013-01-02 02:49:00,
2013-01-01 18:54:00,44.5,33.9,24.93,SSW,207,0.0,4.0,66,0.00,,---,0.00,VWS V13.01,2013-01-02 02:54:00,
2013-01-01 18:59:00,44.1,34.2,24.95,SSW,207,0.0,4.0,68,0.00,,---,0.00,VWS V13.01,2013-01-02 02:59:00,
2013-01-01 19:04:00,43.7,34.2,24.94,SSW,207,0.0,0.0,69,0.00,,---,0.00,VWS V13.01,2013-01-02 03:04:00,
2013-01-01 19:09:00,43.3,34.2,24.95,SSW,207,0.0,0.0,70,0.00,,---,0.00,VWS V13.01,2013-01-02 03:09:00,
2013-01-01 19:14:00,43.0,33.9,24.97,SSW,207,0.0,0.0,70,0.00,,---,0.00,VWS V13.01,2013-01-02 03:14:00,
2013-01-01 19:19:00,42.7,34.0,24.96,SSW,207,0.0,0.0,71,0.00,,---,0.00,VWS V13.01,2013-01-02 03:19:00,
2013-01-01 19:24:00,42.4,34.0,24.96,SSW,207,0.0,0.0,72,0.00,,---,0.00,VWS V13.01,2013-01-02 03:24:00,
2013-01-01 19:29:00,42.0,34.0,24.91,SSW,207,0.0,0.0,73,0.00,,---,0.00,VWS V13.01,2013-01-02 03:29:00,
2013-01-01 19:34:00,41.7,34.0,24.87,SSW,207,0.0,0.0,74,0.00,,---,0.00,VWS V13.01,2013-01-02 03:34:00,
2013-01-01 19:39:00,41.4,33.4,24.89,SSW,207,0.0,0.0,73,0.00,,---,0.00,VWS V13.01,2013-01-02 03:39:00,
2013-01-01 19:44:00,41.3,34.0,24.92,SSW,207,0.0,0.0,75,0.00,,---,0.00,VWS V13.01,2013-01-02 03:44:00,
2013-01-01 19:49:00,41.1,33.8,24.88,SSW,207,0.0,0.0,75,0.00,,---,0.00,VWS V13.01,2013-01-02 03:49:00,
2013-01-01 19:54:00,40.9,34.3,24.89,SSW,207,0.0,0.0,77,0.00,,---,0.00,VWS V13.01,2013-01-02 03:54:00,
2013-01-01 19:59:00,40.6,33.6,24.89,SSW,207,0.0,0.0,76,0.00,,---,0.00,VWS V13.01,2013-01-02 03:59:00,
2013-01-01 20:04:00,40.4,33.8,24.90,SSW,207,0.0,0.0,77,0.00,,---,0.00,VWS V13.01,2013-01-02 04:04:00,
2013-01-01 20:09:00,40.2,33.9,24.93,SSW,207,0.0,1.0,78,0.00,,---,0.00,VWS V13.01,2013-01-02 04:09:00,
2013-01-01 20:14:00,40.1,33.8,24.84,SSW,207,0.0,1.0,78,0.00,,---,0.00,VWS V13.01,2013-01-02 04:14:00,
2013-01-01 20:19:00,39.9,33.6,24.84,SSW,207,0.0,1.0,78,0.00,,---,0.00,VWS V13.01,2013-01-02 04:19:00,
2013-01-01 20:24:00,39.7,33.4,24.84,SSW,207,0.0,1.0,78,0.00,,---,0.00,VWS V13.01,2013-01-02 04:24:00,
2013-01-01 20:29:00,39.6,33.6,24.85,SSW,207,0.0,1.0,79,0.00,,---,0.00,VWS V13.01,2013-01-02 04:29:00,
2013-01-01 20:34:00,39.4,33.4,24.78,SSW,207,0.0,1.0,79,0.00,,---,0.00,VWS V13.01,2013-01-02 04:34:00,
2013-01-01 20:39:00,39.2,33.2,24.84,SSW,207,0.0,1.0,79,0.00,,---,0.00,VWS V13.01,2013-01-02 04:39:00,
2013-01-01 20:44:00,39.1,33.2,24.88,SSW,207,0.0,1.0,79,0.00,,---,0.00,VWS V13.01,2013-01-02 04:44:00,
2013-01-01 20:49:00,39.0,33.4,24.90,SSW,207,0.0,1.0,80,0.00,,---,0.00,VWS V13.01,2013-01-02 04:49:00,
2013-01-01 20:54:00,38.9,33.3,24.77,SSW,207,0.0,1.0,80,0.00,,---,0.00,VWS V13.01,2013-01-02 04:54:00,
2013-01-01 20:59:00,38.8,33.2,24.76,SSW,207,0.0,1.0,80,0.00,,---,0.00,VWS V13.01,2013-01-02 04:59:00,
2013-01-01 21:00:00,38.8,33.2,24.76,SSW,207,0.0,1.0,80,0.00,,---,0.00,VWS V13.01,2013-01-02 05:00:00,
2013-01-01 21:02:00,38.7,33.1,24.78,SSW,207,0.0,0.0,80,0.00,,---,0.00,VWS V13.01,2013-01-02 05:02:00,
2013-01-01 21:07:00,38.5,33.2,24.78,SSW,207,0.0,0.0,81,0.00,,---,0.00,VWS V13.01,2013-01-02 05:07:00,
2013-01-01 21:12:00,38.4,33.1,24.78,SSW,207,0.0,0.0,81,0.00,,---,0.00,VWS V13.01,2013-01-02 05:12:00,
2013-01-01 21:17:00,38.2,33.2,24.80,SSW,207,0.0,1.0,82,0.00,,---,0.00,VWS V13.01,2013-01-02 05:17:00,
2013-01-01 21:22:00,38.1,33.1,24.93,SSW,207,0.0,1.0,82,0.00,,---,0.00,VWS V13.01,2013-01-02 05:22:00,
2013-01-01 21:27:00,38.0,33.0,24.98,SSW,207,0.0,1.0,82,0.00,,---,0.00,VWS V13.01,2013-01-02 05:27:00,
2013-01-01 21:32:00,37.9,32.9,24.94,SSW,207,0.0,1.0,82,0.00,,---,0.00,VWS V13.01,2013-01-02 05:32:00,
2013-01-01 21:37:00,37.7,32.7,24.90,SSW,207,0.0,1.0,82,0.00,,---,0.00,VWS V13.01,2013-01-02 05:37:00,
2013-01-01 21:42:00,37.5,32.5,24.87,SSW,207,0.0,1.0,82,0.00,,---,0.00,VWS V13.01,2013-01-02 05:42:00,
2013-01-01 21:47:00,37.4,32.4,24.87,SSW,207,0.0,1.0,82,0.00,,---,0.00,VWS V13.01,2013-01-02 05:47:00,
2013-01-01 21:52:00,37.2,32.5,24.87,SSW,207,0.0,1.0,83,0.00,,---,0.00,VWS V13.01,2013-01-02 05:52:00,
2013-01-01 21:57:00,37.1,32.4,24.93,SSW,207,0.0,1.0,83,0.00,,---,0.00,VWS V13.01,2013-01-02 05:57:00,
2013-01-01 22:02:00,36.9,32.2,24.90,SSW,207,0.0,0.0,83,0.00,,---,0.00,VWS V13.01,2013-01-02 06:02:00,
2013-01-01 22:07:00,36.9,32.5,24.85,SSW,207,0.0,0.0,84,0.00,,---,0.00,VWS V13.01,2013-01-02 06:07:00,
2013-01-01 22:12:00,37.0,32.6,24.83,SSW,207,0.0,0.0,84,0.00,,---,0.00,VWS V13.01,2013-01-02 06:12:00,
2013-01-01 22:17:00,37.0,32.6,24.83,SSW,207,0.0,0.0,84,0.00,,---,0.00,VWS V13.01,2013-01-02 06:17:00,
2013-01-01 22:22:00,36.9,32.5,24.87,SSW,207,0.0,0.0,84,0.00,,---,0.00,VWS V13.01,2013-01-02 06:22:00,
2013-01-01 22:27:00,36.8,32.4,24.83,SSW,207,0.0,0.0,84,0.00,,---,0.00,VWS V13.01,2013-01-02 06:27:00,
2013-01-01 22:32:00,36.7,32.3,24.87,SSW,207,0.0,0.0,84,0.00,,---,0.00,VWS V13.01,2013-01-02 06:32:00,
2013-01-01 22:37:00,36.6,32.2,24.89,SSW,207,0.0,0.0,84,0.00,,---,0.00,VWS V13.01,2013-01-02 06:37:00,
2013-01-01 22:42:00,36.4,32.0,24.81,SSW,207,0.0,0.0,84,0.00,,---,0.00,VWS V13.01,2013-01-02 06:42:00,
2013-01-01 22:47:00,36.3,32.2,24.86,SSW,207,0.0,0.0,85,0.00,,---,0.00,VWS V13.01,2013-01-02 06:47:00,
2013-01-01 22:52:00,36.2,32.1,24.83,SSW,207,0.0,0.0,85,0.00,,---,0.00,VWS V13.01,2013-01-02 06:52:00,
2013-01-01 22:57:00,36.0,31.9,24.83,SSW,207,0.0,0.0,85,0.00,,---,0.00,VWS V13.01,2013-01-02 06:57:00,
2013-01-01 23:02:00,35.9,31.8,24.80,SSW,207,0.0,0.0,85,0.00,,---,0.00,VWS V13.01,2013-01-02 07:02:00,
2013-01-01 23:07:00,35.7,31.6,24.87,SSW,207,0.0,0.0,85,0.00,,---,0.00,VWS V13.01,2013-01-02 07:07:00,
2013-01-01 23:12:00,35.6,31.5,24.87,SSW,207,0.0,0.0,85,0.00,,---,0.00,VWS V13.01,2013-01-02 07:12:00,
2013-01-01 23:17:00,35.5,31.5,24.87,SSW,207,0.0,0.0,85,0.00,,---,0.00,VWS V13.01,2013-01-02 07:17:00,
2013-01-01 23:22:00,35.3,31.2,24.89,SSW,207,0.0,0.0,85,0.00,,---,0.00,VWS V13.01,2013-01-02 07:22:00,
2013-01-01 23:27:00,35.2,31.1,24.76,SSW,207,0.0,0.0,85,0.00,,---,0.00,VWS V13.01,2013-01-02 07:27:00,
2013-01-01 23:32:00,35.1,31.3,24.87,SSW,207,0.0,0.0,86,0.00,,---,0.00,VWS V13.01,2013-01-02 07:32:00,
2013-01-01 23:37:00,35.0,31.2,24.86,SSW,207,0.0,0.0,86,0.00,,---,0.00,VWS V13.01,2013-01-02 07:37:00,
2013-01-01 23:42:00,34.9,31.1,24.88,SSW,207,0.0,0.0,86,0.00,,---,0.00,VWS V13.01,2013-01-02 07:42:00,
2013-01-01 23:47:00,34.9,31.1,24.82,SSW,207,0.0,0.0,86,0.00,,---,0.00,VWS V13.01,2013-01-02 07:47:00,
2013-01-01 23:52:00,34.8,31.0,24.82,SSW,207,0.0,0.0,86,0.00,,---,0.00,VWS V13.01,2013-01-02 07:52:00,